Time;durP1;ratioP1;P1;durP2;ratioP2;P2;SDS_P1;SDS_P2;PMS_P1;PMS_P2;Temp;Humidity;BMP_temperature;BMP_pressure;BME280_temperature;BME280_humidity;BME280_pressure;Samples;Min_cycle;Max_cycle;Signal;HPM_P1;HPM_P2
2021/03/02 00:00:10;;;;;;;22.35;10.82;;;2.30;98.90;;;;;;4973854;28;20061;-65
2021/03/02 00:02:38;;;;;;;19.35;9.85;;;2.30;99.10;;;;;;4997324;28;20118;-65
2021/03/02 00:05:04;;;;;;;18.08;9.93;;;2.20;99.70;;;;;;4995027;28;20750;-66
2021/03/02 00:07:30;;;;;;;17.25;9.98;;;2.20;99.90;;;;;;4992467;28;20062;-65
2021/03/02 00:09:59;;;;;;;17.38;9.40;;;2.20;99.90;;;;;;4990836;28;20034;-69
2021/03/02 00:12:26;;;;;;;15.45;9.07;;;2.20;99.90;;;;;;4989893;28;20031;-66
2021/03/02 00:14:51;;;;;;;17.20;9.38;;;2.20;99.80;;;;;;4991220;28;20476;-66
2021/03/02 00:17:25;;;;;;;16.75;9.13;;;2.20;99.50;;;;;;4989906;28;20029;-65
2021/03/02 00:20:00;;;;;;;15.73;8.85;;;2.10;99.50;;;;;;4991865;28;20058;-63
2021/03/02 00:22:29;;;;;;;17.33;9.05;;;2.00;99.90;;;;;;4991068;28;20022;-65
2021/03/02 00:24:57;;;;;;;20.25;10.05;;;1.90;99.90;;;;;;4990931;28;20117;-70
2021/03/02 00:27:24;;;;;;;17.20;9.30;;;1.90;99.90;;;;;;4991211;28;20613;-67
2021/03/02 00:29:52;;;;;;;16.98;8.88;;;1.90;99.90;;;;;;4973916;28;20026;-66
2021/03/02 00:32:22;;;;;;;15.63;9.13;;;1.90;99.90;;;;;;4989916;28;20046;-67
2021/03/02 00:34:49;;;;;;;15.18;8.18;;;1.90;99.90;;;;;;4973669;28;20034;-65
2021/03/02 00:37:15;;;;;;;15.80;9.43;;;1.80;99.90;;;;;;4990298;28;20042;-65
2021/03/02 00:39:41;;;;;;;17.15;9.10;;;1.80;99.90;;;;;;4991280;28;20438;-65
2021/03/02 00:42:07;;;;;;;14.50;8.40;;;1.80;99.90;;;;;;4990402;28;20030;-63
2021/03/02 00:44:33;;;;;;;15.95;7.93;;;1.80;99.90;;;;;;4990902;28;20113;-66
2021/03/02 00:46:59;;;;;;;14.20;7.80;;;1.70;99.90;;;;;;4991001;28;20049;-66
2021/03/02 00:49:24;;;;;;;14.55;8.27;;;1.70;99.90;;;;;;4973347;28;20387;-66
2021/03/02 00:51:50;;;;;;;14.77;8.75;;;1.60;99.90;;;;;;4990817;28;20030;-64
2021/03/02 00:54:16;;;;;;;14.95;8.00;;;1.60;99.90;;;;;;4989492;28;20022;-64
2021/03/02 00:56:41;;;;;;;14.90;8.18;;;1.60;99.90;;;;;;4990519;28;20030;-64
2021/03/02 00:59:07;;;;;;;12.88;7.20;;;1.60;99.90;;;;;;4989894;28;20360;-64
2021/03/02 01:01:33;;;;;;;18.63;8.40;;;1.60;99.90;;;;;;4990571;28;20056;-66
2021/03/02 01:03:59;;;;;;;16.27;8.20;;;1.60;99.90;;;;;;4989904;28;20031;-65
2021/03/02 01:06:24;;;;;;;13.90;7.95;;;1.50;99.90;;;;;;4990411;28;20450;-65
2021/03/02 01:08:50;;;;;;;14.40;7.70;;;1.60;99.90;;;;;;4990522;28;20057;-64
2021/03/02 01:11:16;;;;;;;14.73;8.23;;;1.50;99.90;;;;;;4990470;28;20058;-64
2021/03/02 01:13:42;;;;;;;14.55;8.60;;;1.50;99.90;;;;;;4990980;28;20026;-66
2021/03/02 01:16:07;;;;;;;14.82;7.97;;;1.50;99.90;;;;;;4990480;28;20527;-65
2021/03/02 01:18:33;;;;;;;13.63;8.20;;;1.40;99.90;;;;;;4977525;28;20074;-63
2021/03/02 01:20:59;;;;;;;15.25;8.70;;;1.40;99.90;;;;;;4973666;28;20031;-64
2021/03/02 01:23:25;;;;;;;14.10;7.95;;;1.40;99.90;;;;;;4991711;28;20114;-64
2021/03/02 01:25:50;;;;;;;13.13;7.93;;;1.30;99.90;;;;;;4991782;28;20031;-64
2021/03/02 01:28:16;;;;;;;15.77;8.55;;;1.30;99.90;;;;;;4990804;28;20026;-65
2021/03/02 01:30:42;;;;;;;15.95;7.82;;;1.20;99.90;;;;;;4991951;28;20031;-64
2021/03/02 01:33:07;;;;;;;16.10;7.85;;;1.20;99.90;;;;;;4990540;28;20150;-65
2021/03/02 01:35:33;;;;;;;16.98;8.40;;;1.20;99.90;;;;;;4995206;28;20037;-64
2021/03/02 01:37:59;;;;;;;16.40;8.75;;;1.20;99.90;;;;;;4993600;28;20034;-65
2021/03/02 01:40:24;;;;;;;16.50;8.48;;;1.20;99.90;;;;;;4991681;28;20023;-66
2021/03/02 01:42:50;;;;;;;15.40;8.00;;;1.20;99.90;;;;;;4991313;28;20022;-65
2021/03/02 01:45:20;;;;;;;14.85;7.93;;;1.30;99.90;;;;;;4990405;28;20578;-64
2021/03/02 01:47:48;;;;;;;14.57;8.48;;;1.20;99.90;;;;;;4991506;28;20035;-64
2021/03/02 01:50:14;;;;;;;13.07;7.38;;;1.20;99.90;;;;;;5000102;28;20653;-64
2021/03/02 01:52:40;;;;;;;13.35;7.30;;;1.20;99.90;;;;;;4998028;28;20023;-65
2021/03/02 01:55:07;;;;;;;15.07;7.28;;;1.10;99.90;;;;;;4990369;28;20027;-64
2021/03/02 01:57:33;;;;;;;15.55;8.73;;;1.10;99.90;;;;;;4991393;28;20050;-64
2021/03/02 02:00:03;;;;;;;18.40;9.13;;;1.00;99.90;;;;;;4973680;28;20475;-64
2021/03/02 02:02:42;;;;;;;15.98;8.65;;;0.90;99.90;;;;;;4991091;28;20049;-65
2021/03/02 02:05:10;;;;;;;14.50;8.93;;;0.90;99.90;;;;;;4990809;28;20054;-66
2021/03/02 02:07:42;;;;;;;16.00;8.45;;;0.80;99.90;;;;;;4991692;28;20438;-64
2021/03/02 02:10:30;;;;;;;16.02;8.80;;;0.80;99.90;;;;;;4993001;28;20034;-64
2021/03/02 02:13:07;;;;;;;15.73;8.45;;;0.80;99.90;;;;;;4994732;28;20041;-68
2021/03/02 02:15:35;;;;;;;13.63;8.10;;;0.80;99.90;;;;;;4995262;28;20099;-65
2021/03/02 02:18:11;;;;;;;14.95;7.72;;;0.80;99.90;;;;;;4994013;28;20038;-64
2021/03/02 02:21:16;;;;;;;16.35;9.10;;;0.80;99.90;;;;;;4995273;28;20595;-64
2021/03/02 02:23:50;;;;;;;16.42;8.35;;;0.80;99.90;;;;;;4983669;28;20498;-66
2021/03/02 02:26:46;;;;;;;21.45;8.77;;;0.70;99.90;;;;;;4994507;28;20119;-65
2021/03/02 02:29:16;;;;;;;15.65;8.00;;;0.60;99.90;;;;;;4993842;28;20231;-65
2021/03/02 02:31:43;;;;;;;16.65;8.80;;;0.60;99.90;;;;;;4994836;28;20054;-64
2021/03/02 02:34:15;;;;;;;14.77;8.43;;;0.50;99.90;;;;;;4976227;28;20026;-65
2021/03/02 02:36:42;;;;;;;14.23;8.13;;;0.50;99.90;;;;;;5001192;28;20030;-64
2021/03/02 02:39:08;;;;;;;15.65;8.05;;;0.50;99.90;;;;;;4992698;28;20023;-66
2021/03/02 02:41:35;;;;;;;16.48;8.73;;;0.50;99.90;;;;;;4994806;28;20124;-64
2021/03/02 02:44:01;;;;;;;19.08;9.73;;;0.50;99.90;;;;;;4976056;28;20026;-67
2021/03/02 02:46:27;;;;;;;15.80;8.98;;;0.50;99.90;;;;;;4994890;28;20040;-64
2021/03/02 02:48:56;;;;;;;15.70;9.07;;;0.50;99.90;;;;;;5000453;28;20029;-64
2021/03/02 02:51:23;;;;;;;16.17;8.88;;;0.50;99.90;;;;;;4994305;28;20097;-64
2021/03/02 02:53:49;;;;;;;16.60;8.13;;;0.40;99.90;;;;;;4977556;28;20030;-64
2021/03/02 02:56:17;;;;;;;17.83;9.70;;;0.40;99.90;;;;;;4993011;28;20027;-64
2021/03/02 02:58:59;;;;;;;21.80;10.30;;;0.40;99.90;;;;;;4994139;28;20033;-66
2021/03/02 03:01:28;;;;;;;22.40;9.75;;;0.40;99.90;;;;;;4993758;28;20367;-64
2021/03/02 03:03:56;;;;;;;21.90;10.17;;;0.30;99.90;;;;;;4994527;28;20034;-63
2021/03/02 03:06:24;;;;;;;20.45;9.80;;;0.30;99.90;;;;;;4993880;28;20045;-64
2021/03/02 03:08:52;;;;;;;18.67;9.32;;;0.30;99.90;;;;;;4993552;28;20026;-64
2021/03/02 03:11:20;;;;;;;18.80;8.98;;;0.20;99.90;;;;;;4993011;28;20481;-64
2021/03/02 03:13:48;;;;;;;18.70;9.73;;;0.20;99.90;;;;;;4976305;28;20022;-64
2021/03/02 03:16:14;;;;;;;17.65;9.18;;;0.10;99.90;;;;;;4992892;28;20113;-64
2021/03/02 03:19:07;;;;;;;19.65;8.50;;;0.10;99.90;;;;;;5006993;28;20037;-64
2021/03/02 03:21:33;;;;;;;19.02;9.60;;;0.10;99.90;;;;;;5008964;28;20049;-64
2021/03/02 03:24:00;;;;;;;18.15;9.60;;;0.00;99.90;;;;;;4999866;28;20072;-69
2021/03/02 03:26:29;;;;;;;18.00;9.35;;;0.00;99.90;;;;;;4993353;28;20042;-64
2021/03/02 03:28:57;;;;;;;19.83;9.70;;;0.00;99.90;;;;;;4993309;28;20085;-64
2021/03/02 03:31:23;;;;;;;20.67;10.35;;;-0.10;99.90;;;;;;4975733;28;20724;-64
2021/03/02 03:33:51;;;;;;;19.52;9.55;;;-0.10;99.90;;;;;;4993454;28;20049;-64
2021/03/02 03:36:18;;;;;;;18.50;9.30;;;-0.10;99.90;;;;;;4992306;28;20034;-64
2021/03/02 03:38:43;;;;;;;19.13;10.48;;;-0.10;99.90;;;;;;4993033;28;20030;-64
2021/03/02 03:41:09;;;;;;;18.38;9.63;;;-0.10;99.90;;;;;;4993228;28;20110;-65
2021/03/02 03:43:35;;;;;;;17.80;9.70;;;-0.20;99.90;;;;;;4993192;28;20050;-64
2021/03/02 03:46:01;;;;;;;26.05;10.85;;;-0.20;99.90;;;;;;4992664;28;20039;-68
2021/03/02 03:48:26;;;;;;;19.08;10.32;;;-0.20;99.90;;;;;;4992753;28;20100;-64
2021/03/02 03:50:52;;;;;;;21.40;10.02;;;-0.20;99.90;;;;;;4995749;28;20065;-64
2021/03/02 03:53:20;;;;;;;22.48;10.15;;;-0.20;99.90;;;;;;4992105;28;20407;-64
2021/03/02 03:55:48;;;;;;;22.45;10.32;;;-0.30;99.90;;;;;;4995035;28;20539;-64
2021/03/02 03:58:20;;;;;;;20.05;10.73;;;-0.30;99.90;;;;;;4992598;28;20064;-64
2021/03/02 04:00:52;;;;;;;21.42;10.00;;;-0.20;99.90;;;;;;4993709;28;20026;-64
2021/03/02 04:03:23;;;;;;;25.00;10.75;;;-0.20;99.90;;;;;;4991930;28;20037;-64
2021/03/02 04:05:49;;;;;;;18.38;9.70;;;-0.10;99.90;;;;;;4985272;28;20034;-64
2021/03/02 04:08:15;;;;;;;22.00;9.90;;;-0.10;99.90;;;;;;4992150;28;20042;-64
2021/03/02 04:10:42;;;;;;;18.80;9.45;;;-0.10;99.90;;;;;;4993181;28;20062;-64
2021/03/02 04:13:15;;;;;;;21.92;10.63;;;-0.10;99.90;;;;;;4992043;28;20448;-65
2021/03/02 04:15:43;;;;;;;23.42;10.73;;;-0.10;99.90;;;;;;4993020;28;20084;-64
2021/03/02 04:18:11;;;;;;;17.38;9.63;;;-0.10;99.90;;;;;;4992082;28;20054;-65
2021/03/02 04:20:37;;;;;;;19.25;9.95;;;-0.10;99.90;;;;;;4979125;28;20038;-64
2021/03/02 04:23:03;;;;;;;17.73;10.43;;;-0.10;99.90;;;;;;4991339;28;20030;-69
2021/03/02 04:25:30;;;;;;;20.35;9.93;;;-0.10;99.90;;;;;;4992766;28;20590;-64
2021/03/02 04:27:56;;;;;;;21.92;10.98;;;-0.20;99.90;;;;;;4996395;28;20041;-64
2021/03/02 04:30:23;;;;;;;22.10;10.50;;;-0.20;99.90;;;;;;4992286;28;20023;-64
2021/03/02 04:32:48;;;;;;;19.98;10.60;;;-0.30;99.90;;;;;;4973824;28;20104;-64
2021/03/02 04:35:14;;;;;;;23.90;10.80;;;-0.30;99.90;;;;;;4991652;28;20538;-67
2021/03/02 04:37:40;;;;;;;19.20;11.02;;;-0.40;99.90;;;;;;4992647;28;20030;-64
2021/03/02 04:40:07;;;;;;;36.78;16.40;;;-0.40;99.90;;;;;;4992320;28;20105;-64
2021/03/02 04:42:33;;;;;;;32.85;15.38;;;-0.40;99.90;;;;;;4990529;28;20022;-64
2021/03/02 04:44:59;;;;;;;30.67;14.18;;;-0.40;99.90;;;;;;4996676;28;20124;-64
2021/03/02 04:47:25;;;;;;;28.20;13.38;;;-0.40;99.90;;;;;;4974487;28;20173;-64
2021/03/02 04:49:51;;;;;;;30.40;14.95;;;-0.40;99.90;;;;;;4992394;28;20023;-65
2021/03/02 04:52:17;;;;;;;28.25;14.52;;;-0.40;99.90;;;;;;4991753;28;20022;-65
2021/03/02 04:54:43;;;;;;;29.80;13.95;;;-0.40;99.90;;;;;;4992585;28;20038;-64
2021/03/02 04:57:09;;;;;;;26.23;13.05;;;-0.40;99.90;;;;;;4991678;28;20494;-65
2021/03/02 04:59:35;;;;;;;25.73;14.25;;;-0.40;99.90;;;;;;4992610;28;20034;-64
2021/03/02 05:02:00;;;;;;;22.58;11.70;;;-0.40;99.90;;;;;;4992406;28;20407;-68
2021/03/02 05:04:26;;;;;;;23.35;12.02;;;-0.50;99.90;;;;;;4994613;28;20153;-64
2021/03/02 05:06:51;;;;;;;27.27;12.52;;;-0.50;99.90;;;;;;4992228;28;20545;-64
2021/03/02 05:09:17;;;;;;;23.92;11.80;;;-0.60;99.90;;;;;;4992058;28;20065;-64
2021/03/02 05:11:43;;;;;;;24.10;12.35;;;-0.60;99.90;;;;;;5007122;28;20105;-64
2021/03/02 05:14:09;;;;;;;28.35;13.20;;;-0.60;99.90;;;;;;4995424;28;20522;-64
2021/03/02 05:16:34;;;;;;;27.05;14.00;;;-0.70;99.90;;;;;;4992677;28;20105;-64
2021/03/02 05:19:00;;;;;;;30.65;14.70;;;-0.70;99.90;;;;;;4991832;28;20391;-64
2021/03/02 05:21:26;;;;;;;22.92;12.55;;;-0.70;99.90;;;;;;4991216;28;20026;-64
2021/03/02 05:23:51;;;;;;;27.42;13.10;;;-0.70;99.90;;;;;;4991524;28;20034;-64
2021/03/02 05:26:17;;;;;;;23.98;12.10;;;-0.60;99.90;;;;;;4991241;28;20453;-64
2021/03/02 05:28:42;;;;;;;23.38;11.60;;;-0.60;99.90;;;;;;4974267;28;20830;-65
2021/03/02 05:31:08;;;;;;;29.83;12.50;;;-0.50;99.90;;;;;;4991202;28;20031;-64
2021/03/02 05:33:34;;;;;;;23.88;12.02;;;-0.50;99.90;;;;;;4989567;28;20056;-65
2021/03/02 05:35:59;;;;;;;21.42;11.93;;;-0.50;99.90;;;;;;4982867;28;20387;-64
2021/03/02 05:38:25;;;;;;;24.48;12.27;;;-0.50;99.90;;;;;;4971850;28;20023;-65
2021/03/02 05:40:51;;;;;;;26.70;13.60;;;-0.50;99.90;;;;;;4972550;28;20042;-64
2021/03/02 05:43:16;;;;;;;24.90;12.63;;;-0.50;99.90;;;;;;4979594;28;20053;-64
2021/03/02 05:45:43;;;;;;;21.75;12.02;;;-0.50;99.90;;;;;;4983973;28;20030;-64
2021/03/02 05:48:10;;;;;;;25.50;12.50;;;-0.50;99.90;;;;;;4982387;28;20038;-64
2021/03/02 05:50:36;;;;;;;24.02;11.32;;;-0.50;99.90;;;;;;4995569;28;20038;-65
2021/03/02 05:53:02;;;;;;;23.65;12.13;;;-0.50;99.90;;;;;;4978759;28;20468;-65
2021/03/02 05:55:33;;;;;;;21.08;11.23;;;-0.60;99.90;;;;;;4991636;28;20106;-64
2021/03/02 05:58:00;;;;;;;23.27;11.52;;;-0.60;99.90;;;;;;4985288;28;20045;-64
2021/03/02 06:00:26;;;;;;;26.80;13.00;;;-0.60;99.90;;;;;;4986869;28;20038;-64
2021/03/02 06:02:52;;;;;;;26.35;13.07;;;-0.70;99.90;;;;;;4988759;28;20376;-64
2021/03/02 06:05:18;;;;;;;26.10;13.15;;;-0.60;99.90;;;;;;4998773;28;20030;-64
2021/03/02 06:07:44;;;;;;;28.95;13.48;;;-0.60;99.90;;;;;;4982550;28;20031;-64
2021/03/02 06:10:10;;;;;;;26.52;12.95;;;-0.50;99.90;;;;;;4981269;28;20035;-65
2021/03/02 06:12:53;;;;;;;26.25;13.70;;;-0.50;99.90;;;;;;4965169;28;20093;-64
2021/03/02 06:15:20;;;;;;;28.90;14.13;;;-0.50;99.90;;;;;;4986492;28;20042;-63
2021/03/02 06:17:47;;;;;;;27.77;13.18;;;-0.50;99.90;;;;;;4978299;28;20029;-64
2021/03/02 06:20:22;;;;;;;25.67;12.43;;;-0.50;99.90;;;;;;4984229;28;20030;-65
2021/03/02 06:22:48;;;;;;;25.98;12.68;;;-0.50;99.90;;;;;;4984299;28;20034;-64
2021/03/02 06:25:29;;;;;;;28.63;13.95;;;-0.50;99.90;;;;;;4975976;28;20464;-64
2021/03/02 06:27:55;;;;;;;23.75;13.05;;;-0.50;99.90;;;;;;4986044;28;20043;-63
2021/03/02 06:30:22;;;;;;;26.08;14.07;;;-0.50;99.90;;;;;;4983528;28;20038;-66
2021/03/02 06:32:52;;;;;;;28.20;14.05;;;-0.50;99.90;;;;;;4979942;28;20183;-63
2021/03/02 06:35:34;;;;;;;24.27;12.90;;;-0.50;99.90;;;;;;4997072;28;20061;-63
2021/03/02 06:38:00;;;;;;;32.60;15.70;;;-0.50;99.90;;;;;;5010871;28;20049;-63
2021/03/02 06:40:55;;;;;;;34.55;16.63;;;-0.40;99.90;;;;;;5006797;28;20254;-64
2021/03/02 06:43:39;;;;;;;40.45;17.27;;;-0.40;99.90;;;;;;4981700;28;20069;-63
2021/03/02 06:46:10;;;;;;;31.75;15.27;;;-0.40;99.90;;;;;;4997609;28;20084;-67
2021/03/02 06:48:52;;;;;;;31.13;15.02;;;-0.30;99.90;;;;;;4994543;28;20080;-62
2021/03/02 06:51:26;;;;;;;23.55;13.98;;;-0.20;99.90;;;;;;4994060;28;20093;-64
2021/03/02 06:54:05;;;;;;;32.47;15.85;;;-0.20;99.90;;;;;;4995101;28;20037;-63
2021/03/02 06:56:31;;;;;;;37.22;14.65;;;-0.10;99.90;;;;;;5009248;28;20109;-62
2021/03/02 06:59:14;;;;;;;28.95;13.85;;;0.00;99.90;;;;;;4995296;28;20535;-65
2021/03/02 07:01:45;;;;;;;24.83;12.65;;;0.10;99.90;;;;;;4993284;28;20482;-63
2021/03/02 07:04:12;;;;;;;29.50;13.50;;;0.20;99.90;;;;;;4993677;28;20153;-66
2021/03/02 07:06:39;;;;;;;24.55;13.18;;;0.20;99.90;;;;;;4996843;28;20103;-64
2021/03/02 07:09:08;;;;;;;30.15;14.90;;;0.30;99.90;;;;;;5002229;28;20037;-64
2021/03/02 07:11:36;;;;;;;28.33;14.52;;;0.40;99.90;;;;;;4999836;28;20038;-70
2021/03/02 07:14:06;;;;;;;29.05;14.35;;;0.50;99.90;;;;;;4999651;28;20100;-65
2021/03/02 07:16:38;;;;;;;30.00;13.93;;;0.60;99.90;;;;;;4994979;28;20094;-65
2021/03/02 07:19:05;;;;;;;28.70;14.18;;;0.80;99.90;;;;;;4994682;28;20399;-64
2021/03/02 07:21:39;;;;;;;28.52;15.07;;;0.90;99.90;;;;;;4994024;28;20503;-64
2021/03/02 07:24:09;;;;;;;24.05;13.48;;;1.00;99.90;;;;;;4993627;28;20105;-63
2021/03/02 07:26:36;;;;;;;28.38;14.90;;;1.10;99.90;;;;;;4993660;28;20030;-63
2021/03/02 07:29:03;;;;;;;29.45;14.13;;;1.20;99.90;;;;;;4993601;28;20037;-64
2021/03/02 07:31:31;;;;;;;26.13;13.40;;;1.30;99.90;;;;;;4991098;28;20033;-64
2021/03/02 07:34:04;;;;;;;24.38;13.40;;;1.40;99.90;;;;;;4992804;28;20053;-64
2021/03/02 07:36:41;;;;;;;24.48;13.23;;;1.50;99.90;;;;;;4992890;28;20512;-64
2021/03/02 07:39:21;;;;;;;26.42;14.93;;;1.60;99.90;;;;;;4998262;28;20459;-67
2021/03/02 07:41:48;;;;;;;26.48;13.10;;;1.70;99.90;;;;;;4976270;28;20149;-64
2021/03/02 07:44:17;;;;;;;26.40;14.70;;;1.80;99.90;;;;;;4992867;28;20030;-65
2021/03/02 07:46:45;;;;;;;25.90;14.03;;;1.90;99.90;;;;;;4993245;28;20129;-64
2021/03/02 07:49:23;;;;;;;22.52;12.57;;;2.00;99.90;;;;;;4993071;28;20074;-67
2021/03/02 07:52:01;;;;;;;27.75;13.70;;;2.00;99.90;;;;;;4993479;28;20476;-64
2021/03/02 07:54:31;;;;;;;25.70;14.32;;;2.10;99.90;;;;;;4992763;28;20137;-64
2021/03/02 07:57:15;;;;;;;27.40;15.32;;;2.20;99.90;;;;;;4993533;28;20034;-64
2021/03/02 07:59:45;;;;;;;27.00;14.88;;;2.30;99.90;;;;;;4993345;28;20360;-64
2021/03/02 08:02:21;;;;;;;23.90;14.30;;;2.40;99.90;;;;;;4992368;28;20038;-67
2021/03/02 08:04:51;;;;;;;22.95;13.32;;;2.60;99.90;;;;;;4993303;28;20040;-65
2021/03/02 08:07:21;;;;;;;22.98;12.75;;;2.70;99.90;;;;;;4991720;28;20030;-65
2021/03/02 08:09:48;;;;;;;24.13;12.85;;;2.80;99.90;;;;;;4997312;28;20413;-64
2021/03/02 08:12:33;;;;;;;21.90;13.05;;;2.90;99.90;;;;;;4974855;28;20044;-65
2021/03/02 08:15:21;;;;;;;17.23;11.30;;;3.00;99.70;;;;;;4993407;28;20428;-62
2021/03/02 08:17:47;;;;;;;25.90;12.80;;;3.10;99.30;;;;;;4992272;28;20035;-65
2021/03/02 08:20:13;;;;;;;25.10;13.30;;;3.30;98.50;;;;;;4992697;28;20054;-65
2021/03/02 08:22:41;;;;;;;21.58;12.93;;;3.50;96.30;;;;;;4992557;28;20073;-65
2021/03/02 08:25:24;;;;;;;22.65;12.90;;;3.60;95.70;;;;;;4991829;28;20030;-65
2021/03/02 08:27:52;;;;;;;27.95;13.32;;;3.90;93.60;;;;;;4991946;28;20141;-64
2021/03/02 08:30:33;;;;;;;23.10;13.13;;;4.10;92.20;;;;;;4992332;28;20483;-64
2021/03/02 08:33:04;;;;;;;30.85;13.98;;;4.30;91.70;;;;;;4992200;28;20598;-64
2021/03/02 08:35:34;;;;;;;28.83;13.98;;;4.50;90.50;;;;;;4991615;28;20035;-64
2021/03/02 08:38:01;;;;;;;;;;;4.70;89.30;;;;;;4993060;28;20022;-65
2021/03/02 08:40:32;;;;;;;23.52;12.73;;;4.90;88.80;;;;;;4992033;28;19992;-64
2021/03/02 08:43:02;;;;;;;24.77;14.00;;;4.90;88.60;;;;;;4975254;28;20541;-65
2021/03/02 08:45:30;;;;;;;22.27;11.88;;;5.00;88.00;;;;;;4973716;28;20065;-64
2021/03/02 08:48:17;;;;;;;24.35;12.80;;;5.20;87.10;;;;;;4975180;28;20042;-64
2021/03/02 08:50:43;;;;;;;24.23;12.52;;;5.40;86.00;;;;;;4992530;28;20111;-64
2021/03/02 08:53:28;;;;;;;21.30;12.75;;;5.50;85.70;;;;;;4992120;28;20390;-67
2021/03/02 08:55:54;;;;;;;26.20;13.05;;;5.70;84.50;;;;;;4986339;28;20053;-65
2021/03/02 08:59:02;;;;;;;22.45;13.75;;;5.80;83.50;;;;;;4991455;28;20380;-64
2021/03/02 09:01:35;;;;;;;23.95;13.63;;;5.90;83.30;;;;;;4962512;28;20402;-64
2021/03/02 09:04:11;;;;;;;24.02;13.73;;;6.00;82.80;;;;;;4991528;28;20472;-64
2021/03/02 09:06:39;;;;;;;21.23;12.85;;;6.10;82.20;;;;;;4991206;28;20034;-64
2021/03/02 09:09:11;;;;;;;24.27;13.48;;;6.20;82.30;;;;;;4999455;28;20040;-64
2021/03/02 09:11:47;;;;;;;20.00;12.75;;;6.40;81.80;;;;;;4974152;28;20057;-64
2021/03/02 09:14:18;;;;;;;20.77;12.50;;;6.50;80.60;;;;;;4991478;28;20124;-67
2021/03/02 09:16:46;;;;;;;23.10;13.18;;;6.70;80.10;;;;;;4991888;28;20041;-64
2021/03/02 09:19:21;;;;;;;24.13;13.15;;;6.80;79.30;;;;;;4991078;28;20034;-68
2021/03/02 09:22:06;;;;;;;19.27;12.10;;;7.00;78.50;;;;;;4991984;28;20030;-64
2021/03/02 09:24:36;;;;;;;20.67;12.95;;;7.10;77.80;;;;;;4987488;28;20627;-64
2021/03/02 09:27:10;;;;;;;21.55;12.90;;;7.30;77.00;;;;;;4991230;28;20475;-64
2021/03/02 09:29:39;;;;;;;19.83;12.32;;;7.40;76.10;;;;;;4991150;28;20078;-65
2021/03/02 09:32:06;;;;;;;22.67;13.70;;;7.50;75.70;;;;;;4988308;28;20515;-65
2021/03/02 09:34:34;;;;;;;18.60;13.07;;;7.70;74.80;;;;;;4990877;28;20109;-64
2021/03/02 09:37:20;;;;;;;21.13;12.55;;;7.80;74.20;;;;;;4991282;28;20395;-65
2021/03/02 09:39:56;;;;;;;23.30;13.75;;;7.90;73.60;;;;;;5000182;28;20041;-65
2021/03/02 09:42:24;;;;;;;29.15;15.45;;;8.10;73.60;;;;;;5010402;28;20030;-65
2021/03/02 09:44:52;;;;;;;30.15;15.27;;;8.20;72.70;;;;;;5003415;28;20030;-65
2021/03/02 09:47:30;;;;;;;25.42;12.63;;;8.30;72.70;;;;;;4990116;28;20113;-65
2021/03/02 09:50:02;;;;;;;21.92;12.57;;;8.40;72.20;;;;;;4988223;28;20041;-65
2021/03/02 09:52:52;;;;;;;22.55;14.10;;;8.40;72.10;;;;;;4991714;28;20035;-65
2021/03/02 09:55:26;;;;;;;20.80;13.85;;;8.50;71.60;;;;;;4991166;28;20030;-65
2021/03/02 09:58:14;;;;;;;19.33;12.50;;;8.60;71.20;;;;;;4991102;28;20022;-66
2021/03/02 10:00:46;;;;;;;21.45;13.15;;;8.70;71.30;;;;;;4990379;28;20037;-65
2021/03/02 10:03:16;;;;;;;22.00;13.07;;;8.80;70.70;;;;;;4971894;28;20054;-67
2021/03/02 10:05:46;;;;;;;21.00;13.27;;;8.80;70.80;;;;;;4989744;28;20045;-65
2021/03/02 10:08:36;;;;;;;20.38;12.55;;;8.90;70.50;;;;;;4994266;28;20038;-65
2021/03/02 10:11:11;;;;;;;20.40;12.93;;;9.00;70.00;;;;;;4983120;28;20372;-65
2021/03/02 10:13:41;;;;;;;19.50;13.35;;;9.20;69.60;;;;;;4990264;28;20054;-65
2021/03/02 10:16:28;;;;;;;18.88;12.90;;;9.30;68.80;;;;;;4991753;28;20026;-65
2021/03/02 10:19:17;;;;;;;20.15;13.30;;;9.40;68.90;;;;;;4990410;28;20478;-66
2021/03/02 10:21:50;;;;;;;20.95;12.60;;;9.60;68.80;;;;;;4975618;28;20126;-65
2021/03/02 10:24:23;;;;;;;19.95;13.07;;;9.70;67.90;;;;;;4990486;28;20033;-69
2021/03/02 10:26:50;;;;;;;19.92;12.88;;;9.90;67.70;;;;;;4990775;28;20041;-65
2021/03/02 10:29:15;;;;;;;20.65;13.77;;;10.00;66.80;;;;;;4990721;28;20481;-68
2021/03/02 10:31:41;;;;;;;19.85;13.15;;;10.20;66.30;;;;;;4994370;28;20030;-67
2021/03/02 10:34:09;;;;;;;21.42;13.32;;;10.30;65.70;;;;;;4976732;28;20034;-65
2021/03/02 10:36:39;;;;;;;21.02;12.50;;;10.40;65.50;;;;;;4993724;28;20030;-65
2021/03/02 10:39:15;;;;;;;23.45;14.27;;;10.50;65.20;;;;;;4999982;28;20026;-69
2021/03/02 10:41:43;;;;;;;20.95;12.52;;;10.70;64.70;;;;;;4985958;28;20040;-65
2021/03/02 10:44:09;;;;;;;23.15;12.73;;;10.80;64.40;;;;;;4993821;28;20034;-65
2021/03/02 10:46:36;;;;;;;21.95;13.32;;;10.90;64.00;;;;;;4976338;28;20125;-65
2021/03/02 10:49:02;;;;;;;21.10;13.75;;;11.00;63.50;;;;;;4995061;28;20039;-65
2021/03/02 10:51:29;;;;;;;19.98;13.68;;;11.00;63.40;;;;;;4993456;28;20081;-65
2021/03/02 10:53:55;;;;;;;20.27;12.93;;;11.10;63.30;;;;;;4994557;28;20037;-65
2021/03/02 10:56:21;;;;;;;20.63;13.02;;;11.20;62.70;;;;;;4994118;28;20034;-65
2021/03/02 10:58:48;;;;;;;24.70;14.55;;;11.40;62.70;;;;;;4994441;28;20022;-65
2021/03/02 11:01:14;;;;;;;17.58;12.48;;;11.50;61.60;;;;;;4993346;28;20478;-65
2021/03/02 11:03:42;;;;;;;22.75;14.23;;;11.60;62.10;;;;;;4972036;28;20030;-65
2021/03/02 11:06:08;;;;;;;20.45;13.40;;;11.70;61.50;;;;;;4994475;28;20042;-65
2021/03/02 11:08:33;;;;;;;21.77;12.48;;;11.90;61.10;;;;;;4999791;28;20087;-65
2021/03/02 11:10:59;;;;;;;30.55;13.65;;;12.00;61.20;;;;;;4994179;28;20026;-65
2021/03/02 11:13:24;;;;;;;21.98;14.32;;;12.10;60.90;;;;;;4975564;28;20117;-65
2021/03/02 11:15:50;;;;;;;21.45;13.43;;;12.20;60.10;;;;;;4993174;28;20022;-65
2021/03/02 11:18:16;;;;;;;21.55;13.93;;;12.30;59.40;;;;;;4994023;28;20030;-70
2021/03/02 11:20:43;;;;;;;25.80;15.35;;;12.50;59.10;;;;;;4992508;28;20555;-63
2021/03/02 11:23:09;;;;;;;24.38;14.38;;;12.60;59.40;;;;;;4993712;28;20057;-65
2021/03/02 11:25:35;;;;;;;24.25;15.40;;;12.70;58.30;;;;;;4975444;28;20205;-65
2021/03/02 11:28:00;;;;;;;24.05;13.73;;;12.80;58.30;;;;;;4994079;28;20480;-65
2021/03/02 11:30:26;;;;;;;25.40;14.10;;;12.80;58.60;;;;;;4993267;28;20534;-65
2021/03/02 11:32:52;;;;;;;21.45;13.82;;;12.80;58.50;;;;;;4972604;28;20194;-65
2021/03/02 11:35:18;;;;;;;22.35;14.60;;;12.90;57.80;;;;;;4973593;28;20034;-69
2021/03/02 11:37:44;;;;;;;20.02;14.20;;;13.00;58.30;;;;;;4974318;28;20026;-65
2021/03/02 11:40:19;;;;;;;26.55;15.00;;;13.00;57.70;;;;;;4974463;28;20031;-65
2021/03/02 11:42:45;;;;;;;23.73;14.18;;;13.10;56.70;;;;;;4972730;28;20042;-65
2021/03/02 11:45:12;;;;;;;22.50;15.32;;;13.10;56.70;;;;;;4978374;28;20042;-64
2021/03/02 11:47:39;;;;;;;24.48;14.20;;;13.20;56.90;;;;;;4973335;28;20280;-65
2021/03/02 11:50:06;;;;;;;25.05;14.80;;;13.30;56.50;;;;;;4974005;28;20189;-66
2021/03/02 11:52:32;;;;;;;23.67;14.80;;;13.40;55.80;;;;;;4965448;28;20039;-65
2021/03/02 11:54:58;;;;;;;28.42;15.10;;;13.40;55.50;;;;;;4974000;28;20039;-65
2021/03/02 11:57:24;;;;;;;25.25;14.48;;;13.40;55.60;;;;;;4973081;28;20384;-65
2021/03/02 11:59:50;;;;;;;21.83;14.32;;;13.50;55.70;;;;;;4972479;28;20041;-65
2021/03/02 12:02:16;;;;;;;23.17;14.15;;;13.50;54.70;;;;;;4970964;28;20035;-65
2021/03/02 12:04:43;;;;;;;22.52;13.65;;;13.60;53.60;;;;;;4972005;28;20074;-65
2021/03/02 12:07:09;;;;;;;21.73;13.38;;;13.70;53.40;;;;;;4973771;28;20041;-63
2021/03/02 12:09:36;;;;;;;22.55;13.23;;;13.70;52.20;;;;;;4970549;28;20026;-65
2021/03/02 12:12:03;;;;;;;20.02;12.85;;;13.80;52.60;;;;;;4972828;28;20523;-63
2021/03/02 12:14:29;;;;;;;27.15;14.00;;;14.00;53.30;;;;;;4972745;28;20464;-65
2021/03/02 12:16:54;;;;;;;26.05;13.48;;;14.30;50.50;;;;;;4973235;28;20106;-65
2021/03/02 12:19:20;;;;;;;23.70;13.60;;;14.60;49.80;;;;;;4972282;28;20114;-70
2021/03/02 12:21:46;;;;;;;20.92;13.27;;;14.90;48.50;;;;;;4973124;28;20023;-66
2021/03/02 12:24:12;;;;;;;20.45;13.93;;;15.20;46.80;;;;;;4973545;28;20077;-65
2021/03/02 12:26:37;;;;;;;24.05;14.13;;;15.60;46.50;;;;;;4971524;28;20226;-65
2021/03/02 12:29:03;;;;;;;24.23;14.88;;;15.80;46.30;;;;;;4972990;28;20031;-63
2021/03/02 12:31:29;;;;;;;23.77;14.48;;;16.10;45.60;;;;;;4972020;28;20034;-63
2021/03/02 12:33:55;;;;;;;24.40;13.82;;;16.30;44.70;;;;;;4989865;28;20442;-64
2021/03/02 12:36:21;;;;;;;25.48;14.80;;;16.40;44.90;;;;;;4991763;28;20035;-68
2021/03/02 12:38:47;;;;;;;21.65;13.80;;;16.40;45.30;;;;;;4996426;28;20022;-64
2021/03/02 12:41:13;;;;;;;22.17;14.00;;;16.30;45.30;;;;;;4975020;28;20033;-65
2021/03/02 12:43:38;;;;;;;22.17;13.15;;;16.50;43.90;;;;;;4990759;28;20033;-65
2021/03/02 12:46:04;;;;;;;21.23;14.55;;;16.70;43.40;;;;;;4991823;28;20045;-67